Startpagina
METAR-TAF:

METAR-TAF

Vliegvelden :

Salt Lake City International Airport

Salt Lake City, Utah, Verenigde Staten

breedte: 40-46-41N, lengte: 111-58-10W, hoogte: 1288 m

Actueel weer

Dit bericht is 16 minuten geleden gemaakt, om 14:54 UTC
Wind 7 kt uit het zuidoosten
Temperatuur 21°C
Vochtigheid 38%
Druk 1023 hPa
Zicht: 12.9 km
Weinig wolken op 20000 ft

METAR: KSLC 191454Z 14007KT 8SM FEW200 21/06 A3020 RMK AO2 SLP177 FU FEW200 FU E-SE AND DSNT W T02060061 51010

Tijdstip: 09:10 (15:10 UTC)

Verwachting

Dit bericht is 3 uur en het 50 minuten geleden gemaakt, om 11:20 UTC
Verwachting geldig van 19 om 12 UTC tot 20 om 18 UTC
Wind 4 kt uit het zuidzuidoosten
Zicht: 10 km
Onbewolkt
Van 19 om 1700 UTC
Wind 7 kt uit het noordwesten
Zicht: 10 km
Onbewolkt
Van 20 om 0400 UTC
Wind 6 kt uit het zuidzuidoosten
Zicht: 10 km
Onbewolkt

TAF: KSLC 191120Z 1912/2018 16004KT P6SM SKC FM191700 32007KT P6SM SKC FM200400 15006KT P6SM SKC

Waarnemingen en weersverwachtingen van meer dan 4000 vliegvelden (METAR en TAF).

De beschikbare stations zijn de gele en rode punten op de kaart.

Ga met uw muis naar het station om de naam te zien.

Klik dan om waarnemingen en weersverwachtingen te zien.

kaart wijzigen: klik op de groene knoppen met een zwart kruis om in te zoomen, op de groene knop met een streepje om uit te zoomen of op de groene pijlen voor aangrenzende kaarten.


METAR-TAF: